sensor_id;sensor_type;location;lat;lon;timestamp;temperature;humidity
28171;DHT22;15458;53.346;-1.688;2023-04-01T00:01:43;7.40;99.90
28171;DHT22;15458;53.346;-1.688;2023-04-01T00:04:08;7.30;99.90
28171;DHT22;15458;53.346;-1.688;2023-04-01T00:06:34;7.30;99.90
28171;DHT22;15458;53.346;-1.688;2023-04-01T00:09:01;7.30;99.90
28171;DHT22;15458;53.346;-1.688;2023-04-01T00:11:27;7.20;99.90
28171;DHT22;15458;53.346;-1.688;2023-04-01T00:13:53;7.20;99.90
28171;DHT22;15458;53.346;-1.688;2023-04-01T00:16:19;7.20;99.90
28171;DHT22;15458;53.346;-1.688;2023-04-01T00:18:46;7.20;99.90
28171;DHT22;15458;53.346;-1.688;2023-04-01T00:21:13;7.20;99.90
28171;DHT22;15458;53.346;-1.688;2023-04-01T00:23:38;7.20;99.90
28171;DHT22;15458;53.346;-1.688;2023-04-01T00:26:05;7.10;99.90
28171;DHT22;15458;53.346;-1.688;2023-04-01T00:28:34;7.10;99.90
28171;DHT22;15458;53.346;-1.688;2023-04-01T00:31:06;7.10;99.90
28171;DHT22;15458;53.346;-1.688;2023-04-01T00:33:32;7.10;99.90
28171;DHT22;15458;53.346;-1.688;2023-04-01T00:36:14;7.10;99.90
28171;DHT22;15458;53.346;-1.688;2023-04-01T00:38:41;7.10;99.90
28171;DHT22;15458;53.346;-1.688;2023-04-01T00:41:08;7.10;99.90
28171;DHT22;15458;53.346;-1.688;2023-04-01T00:43:36;7.10;99.90
28171;DHT22;15458;53.346;-1.688;2023-04-01T00:46:01;7.10;99.90
28171;DHT22;15458;53.346;-1.688;2023-04-01T00:48:33;7.10;99.90
28171;DHT22;15458;53.346;-1.688;2023-04-01T00:51:14;7.10;99.90
28171;DHT22;15458;53.346;-1.688;2023-04-01T00:53:50;7.10;99.90
28171;DHT22;15458;53.346;-1.688;2023-04-01T00:56:21;7.10;99.90
28171;DHT22;15458;53.346;-1.688;2023-04-01T00:58:51;7.10;99.90
28171;DHT22;15458;53.346;-1.688;2023-04-01T01:01:21;7.10;99.90
28171;DHT22;15458;53.346;-1.688;2023-04-01T01:03:49;7.00;99.90
28171;DHT22;15458;53.346;-1.688;2023-04-01T01:11:35;7.00;99.90
28171;DHT22;15458;53.346;-1.688;2023-04-01T01:17:00;7.00;99.90
28171;DHT22;15458;53.346;-1.688;2023-04-01T01:20:00;7.00;99.90
28171;DHT22;15458;53.346;-1.688;2023-04-01T01:25:32;7.00;99.90
28171;DHT22;15458;53.346;-1.688;2023-04-01T01:33:44;7.00;99.90
28171;DHT22;15458;53.346;-1.688;2023-04-01T01:36:15;7.00;99.90
28171;DHT22;15458;53.346;-1.688;2023-04-01T01:38:42;6.90;99.90
28171;DHT22;15458;53.346;-1.688;2023-04-01T01:41:10;7.00;99.90
28171;DHT22;15458;53.346;-1.688;2023-04-01T01:43:40;7.00;99.90
28171;DHT22;15458;53.346;-1.688;2023-04-01T01:46:11;7.00;99.90
28171;DHT22;15458;53.346;-1.688;2023-04-01T01:48:40;6.90;99.90
28171;DHT22;15458;53.346;-1.688;2023-04-01T01:51:07;6.90;99.90
28171;DHT22;15458;53.346;-1.688;2023-04-01T01:53:33;6.90;99.90
28171;DHT22;15458;53.346;-1.688;2023-04-01T01:55:59;6.90;99.90
28171;DHT22;15458;53.346;-1.688;2023-04-01T01:58:47;6.90;99.90
28171;DHT22;15458;53.346;-1.688;2023-04-01T02:01:26;6.80;99.90
28171;DHT22;15458;53.346;-1.688;2023-04-01T02:03:55;6.80;99.90
28171;DHT22;15458;53.346;-1.688;2023-04-01T02:06:27;6.80;99.90
28171;DHT22;15458;53.346;-1.688;2023-04-01T02:09:06;6.80;99.90
28171;DHT22;15458;53.346;-1.688;2023-04-01T02:11:47;6.80;99.90
28171;DHT22;15458;53.346;-1.688;2023-04-01T02:14:16;6.80;99.90
28171;DHT22;15458;53.346;-1.688;2023-04-01T02:16:57;6.80;99.90
28171;DHT22;15458;53.346;-1.688;2023-04-01T02:19:41;6.80;99.90
28171;DHT22;15458;53.346;-1.688;2023-04-01T02:22:14;6.80;99.90
28171;DHT22;15458;53.346;-1.688;2023-04-01T02:24:42;6.80;99.90
28171;DHT22;15458;53.346;-1.688;2023-04-01T02:27:10;6.70;99.90
28171;DHT22;15458;53.346;-1.688;2023-04-01T02:29:36;6.70;99.90
28171;DHT22;15458;53.346;-1.688;2023-04-01T02:32:02;6.70;99.90
28171;DHT22;15458;53.346;-1.688;2023-04-01T02:34:29;6.70;99.90
28171;DHT22;15458;53.346;-1.688;2023-04-01T02:36:56;6.70;99.90
28171;DHT22;15458;53.346;-1.688;2023-04-01T02:39:22;6.70;99.90
28171;DHT22;15458;53.346;-1.688;2023-04-01T02:41:48;6.70;99.90
28171;DHT22;15458;53.346;-1.688;2023-04-01T02:44:16;6.70;99.90
28171;DHT22;15458;53.346;-1.688;2023-04-01T02:46:42;6.60;99.90
28171;DHT22;15458;53.346;-1.688;2023-04-01T02:49:08;6.60;99.90
28171;DHT22;15458;53.346;-1.688;2023-04-01T02:51:34;6.60;99.90
28171;DHT22;15458;53.346;-1.688;2023-04-01T02:54:00;6.60;99.90
28171;DHT22;15458;53.346;-1.688;2023-04-01T02:56:26;6.60;99.90
28171;DHT22;15458;53.346;-1.688;2023-04-01T02:58:53;6.50;99.90
28171;DHT22;15458;53.346;-1.688;2023-04-01T03:01:19;6.50;99.90
28171;DHT22;15458;53.346;-1.688;2023-04-01T03:03:45;6.50;99.90
28171;DHT22;15458;53.346;-1.688;2023-04-01T03:06:13;6.50;99.90
28171;DHT22;15458;53.346;-1.688;2023-04-01T03:08:39;6.50;99.90
28171;DHT22;15458;53.346;-1.688;2023-04-01T03:11:05;6.50;99.90
28171;DHT22;15458;53.346;-1.688;2023-04-01T03:13:31;6.40;99.90
28171;DHT22;15458;53.346;-1.688;2023-04-01T03:15:57;6.40;99.90
28171;DHT22;15458;53.346;-1.688;2023-04-01T03:18:23;6.40;99.90
28171;DHT22;15458;53.346;-1.688;2023-04-01T03:20:49;6.40;99.90
28171;DHT22;15458;53.346;-1.688;2023-04-01T03:23:15;6.40;99.90
28171;DHT22;15458;53.346;-1.688;2023-04-01T03:25:42;6.30;99.90
28171;DHT22;15458;53.346;-1.688;2023-04-01T03:28:08;6.30;99.90
28171;DHT22;15458;53.346;-1.688;2023-04-01T03:30:34;6.30;99.90
28171;DHT22;15458;53.346;-1.688;2023-04-01T03:33:00;6.30;99.90
28171;DHT22;15458;53.346;-1.688;2023-04-01T03:35:27;6.30;99.90
28171;DHT22;15458;53.346;-1.688;2023-04-01T03:37:53;6.30;99.90
28171;DHT22;15458;53.346;-1.688;2023-04-01T03:40:20;6.30;99.90
28171;DHT22;15458;53.346;-1.688;2023-04-01T03:42:46;6.30;99.90
28171;DHT22;15458;53.346;-1.688;2023-04-01T03:45:11;6.30;99.90
28171;DHT22;15458;53.346;-1.688;2023-04-01T03:47:38;6.30;99.90
28171;DHT22;15458;53.346;-1.688;2023-04-01T03:50:04;6.30;99.90
28171;DHT22;15458;53.346;-1.688;2023-04-01T03:52:31;6.20;99.90
28171;DHT22;15458;53.346;-1.688;2023-04-01T03:54:56;6.20;99.90
28171;DHT22;15458;53.346;-1.688;2023-04-01T03:57:23;6.20;99.90
28171;DHT22;15458;53.346;-1.688;2023-04-01T03:59:48;6.20;99.90
28171;DHT22;15458;53.346;-1.688;2023-04-01T04:02:14;6.20;99.90
28171;DHT22;15458;53.346;-1.688;2023-04-01T04:04:40;6.20;99.90
28171;DHT22;15458;53.346;-1.688;2023-04-01T04:07:06;6.20;99.90
28171;DHT22;15458;53.346;-1.688;2023-04-01T04:09:32;6.20;99.90
28171;DHT22;15458;53.346;-1.688;2023-04-01T04:12:00;6.20;99.90
28171;DHT22;15458;53.346;-1.688;2023-04-01T04:14:26;6.20;99.90
28171;DHT22;15458;53.346;-1.688;2023-04-01T04:16:52;6.20;99.90
28171;DHT22;15458;53.346;-1.688;2023-04-01T04:19:18;6.10;99.90
28171;DHT22;15458;53.346;-1.688;2023-04-01T04:21:43;6.10;99.90
28171;DHT22;15458;53.346;-1.688;2023-04-01T04:24:09;6.10;99.90
28171;DHT22;15458;53.346;-1.688;2023-04-01T04:26:35;6.10;99.90
28171;DHT22;15458;53.346;-1.688;2023-04-01T04:29:02;6.10;99.90
28171;DHT22;15458;53.346;-1.688;2023-04-01T04:31:28;6.10;99.90
28171;DHT22;15458;53.346;-1.688;2023-04-01T04:33:54;6.10;99.90
28171;DHT22;15458;53.346;-1.688;2023-04-01T04:36:20;6.00;99.90
28171;DHT22;15458;53.346;-1.688;2023-04-01T04:38:47;6.00;99.90
28171;DHT22;15458;53.346;-1.688;2023-04-01T04:41:15;6.00;99.90
28171;DHT22;15458;53.346;-1.688;2023-04-01T04:43:52;6.00;99.90
28171;DHT22;15458;53.346;-1.688;2023-04-01T04:46:18;5.90;99.90
28171;DHT22;15458;53.346;-1.688;2023-04-01T04:48:44;5.90;99.90
28171;DHT22;15458;53.346;-1.688;2023-04-01T04:51:16;5.90;99.90
28171;DHT22;15458;53.346;-1.688;2023-04-01T04:53:43;5.90;99.90
28171;DHT22;15458;53.346;-1.688;2023-04-01T04:56:09;5.90;99.90
28171;DHT22;15458;53.346;-1.688;2023-04-01T04:58:35;5.80;99.90
28171;DHT22;15458;53.346;-1.688;2023-04-01T05:01:12;5.80;99.90
28171;DHT22;15458;53.346;-1.688;2023-04-01T05:03:38;5.80;99.90
28171;DHT22;15458;53.346;-1.688;2023-04-01T05:06:05;5.90;99.90
28171;DHT22;15458;53.346;-1.688;2023-04-01T05:08:31;5.80;99.90
28171;DHT22;15458;53.346;-1.688;2023-04-01T05:10:58;5.80;99.90
28171;DHT22;15458;53.346;-1.688;2023-04-01T05:13:24;5.80;99.90
28171;DHT22;15458;53.346;-1.688;2023-04-01T05:15:50;5.80;99.90
28171;DHT22;15458;53.346;-1.688;2023-04-01T05:18:16;5.80;99.90
28171;DHT22;15458;53.346;-1.688;2023-04-01T05:20:49;5.80;99.90
28171;DHT22;15458;53.346;-1.688;2023-04-01T05:23:16;5.80;99.90
28171;DHT22;15458;53.346;-1.688;2023-04-01T05:25:43;5.80;99.90
28171;DHT22;15458;53.346;-1.688;2023-04-01T05:28:10;5.80;99.90
28171;DHT22;15458;53.346;-1.688;2023-04-01T05:30:36;5.80;99.90
28171;DHT22;15458;53.346;-1.688;2023-04-01T05:33:02;5.80;99.90
28171;DHT22;15458;53.346;-1.688;2023-04-01T05:35:29;5.80;99.90
28171;DHT22;15458;53.346;-1.688;2023-04-01T05:37:54;5.70;99.90
28171;DHT22;15458;53.346;-1.688;2023-04-01T05:40:20;5.70;99.90
28171;DHT22;15458;53.346;-1.688;2023-04-01T05:42:46;5.70;99.90
28171;DHT22;15458;53.346;-1.688;2023-04-01T05:45:11;5.80;99.90
28171;DHT22;15458;53.346;-1.688;2023-04-01T05:47:40;5.70;99.90
28171;DHT22;15458;53.346;-1.688;2023-04-01T05:50:09;5.70;99.90
28171;DHT22;15458;53.346;-1.688;2023-04-01T05:52:36;5.70;99.90
28171;DHT22;15458;53.346;-1.688;2023-04-01T05:55:03;5.70;99.90
28171;DHT22;15458;53.346;-1.688;2023-04-01T05:57:29;5.70;99.90
28171;DHT22;15458;53.346;-1.688;2023-04-01T05:59:54;5.70;99.90
28171;DHT22;15458;53.346;-1.688;2023-04-01T06:02:20;5.70;99.90
28171;DHT22;15458;53.346;-1.688;2023-04-01T06:04:46;5.70;99.90
28171;DHT22;15458;53.346;-1.688;2023-04-01T06:07:14;5.60;99.90
28171;DHT22;15458;53.346;-1.688;2023-04-01T06:09:44;5.60;99.90
28171;DHT22;15458;53.346;-1.688;2023-04-01T06:29:01;5.80;99.90
28171;DHT22;15458;53.346;-1.688;2023-04-01T06:34:45;5.80;99.90
28171;DHT22;15458;53.346;-1.688;2023-04-01T06:40:18;5.90;99.90
28171;DHT22;15458;53.346;-1.688;2023-04-01T06:43:03;5.90;99.90
28171;DHT22;15458;53.346;-1.688;2023-04-01T06:45:42;5.90;99.90
28171;DHT22;15458;53.346;-1.688;2023-04-01T06:56:17;6.00;99.90
28171;DHT22;15458;53.346;-1.688;2023-04-01T06:58:48;6.00;99.90
28171;DHT22;15458;53.346;-1.688;2023-04-01T07:01:21;6.00;99.90
28171;DHT22;15458;53.346;-1.688;2023-04-01T07:09:06;6.10;99.90
28171;DHT22;15458;53.346;-1.688;2023-04-01T07:11:37;6.10;99.90
28171;DHT22;15458;53.346;-1.688;2023-04-01T07:14:29;6.10;99.90
28171;DHT22;15458;53.346;-1.688;2023-04-01T07:17:08;6.20;99.90
28171;DHT22;15458;53.346;-1.688;2023-04-01T07:22:42;6.30;99.90
28171;DHT22;15458;53.346;-1.688;2023-04-01T07:25:30;6.40;99.90
28171;DHT22;15458;53.346;-1.688;2023-04-01T07:28:12;6.40;99.90
28171;DHT22;15458;53.346;-1.688;2023-04-01T07:36:26;6.40;99.90
28171;DHT22;15458;53.346;-1.688;2023-04-01T07:39:19;6.40;99.90
28171;DHT22;15458;53.346;-1.688;2023-04-01T07:50:29;6.50;99.90
28171;DHT22;15458;53.346;-1.688;2023-04-01T07:56:14;6.60;99.90
28171;DHT22;15458;53.346;-1.688;2023-04-01T08:01:20;6.60;99.90
28171;DHT22;15458;53.346;-1.688;2023-04-01T08:03:56;6.60;99.90
28171;DHT22;15458;53.346;-1.688;2023-04-01T08:15:15;6.60;99.90
28171;DHT22;15458;53.346;-1.688;2023-04-01T08:23:22;6.60;99.90
28171;DHT22;15458;53.346;-1.688;2023-04-01T08:29:12;6.70;99.90
28171;DHT22;15458;53.346;-1.688;2023-04-01T08:32:05;6.70;99.90
28171;DHT22;15458;53.346;-1.688;2023-04-01T08:34:38;6.70;99.90
28171;DHT22;15458;53.346;-1.688;2023-04-01T08:37:12;6.70;99.90
28171;DHT22;15458;53.346;-1.688;2023-04-01T08:39:46;6.70;99.90
28171;DHT22;15458;53.346;-1.688;2023-04-01T09:02:15;6.80;99.90
28171;DHT22;15458;53.346;-1.688;2023-04-01T09:24:42;7.20;99.90
28171;DHT22;15458;53.346;-1.688;2023-04-01T09:27:27;7.20;99.90
28171;DHT22;15458;53.346;-1.688;2023-04-01T09:36:18;7.40;99.90
28171;DHT22;15458;53.346;-1.688;2023-04-01T09:41:52;7.60;99.90
28171;DHT22;15458;53.346;-1.688;2023-04-01T09:44:40;7.60;99.90
28171;DHT22;15458;53.346;-1.688;2023-04-01T09:50:14;7.70;99.90
28171;DHT22;15458;53.346;-1.688;2023-04-01T09:53:36;7.80;99.90
28171;DHT22;15458;53.346;-1.688;2023-04-01T10:05:28;7.80;99.90
28171;DHT22;15458;53.346;-1.688;2023-04-01T10:13:56;7.90;99.90
28171;DHT22;15458;53.346;-1.688;2023-04-01T10:23:07;8.00;99.90
28171;DHT22;15458;53.346;-1.688;2023-04-01T10:39:31;8.00;99.90
28171;DHT22;15458;53.346;-1.688;2023-04-01T11:04:43;8.10;99.90
28171;DHT22;15458;53.346;-1.688;2023-04-01T11:14:03;8.00;99.90
28171;DHT22;15458;53.346;-1.688;2023-04-01T11:39:20;8.20;99.90
28171;DHT22;15458;53.346;-1.688;2023-04-01T11:44:51;8.20;99.90
28171;DHT22;15458;53.346;-1.688;2023-04-01T12:11:34;8.60;99.90
28171;DHT22;15458;53.346;-1.688;2023-04-01T12:19:26;8.50;99.90
28171;DHT22;15458;53.346;-1.688;2023-04-01T12:27:41;8.60;99.90
28171;DHT22;15458;53.346;-1.688;2023-04-01T12:33:50;8.70;99.90
28171;DHT22;15458;53.346;-1.688;2023-04-01T12:36:20;8.70;99.90
28171;DHT22;15458;53.346;-1.688;2023-04-01T12:39:17;8.80;99.90
28171;DHT22;15458;53.346;-1.688;2023-04-01T13:01:02;8.50;99.90
28171;DHT22;15458;53.346;-1.688;2023-04-01T13:11:40;8.30;99.90
28171;DHT22;15458;53.346;-1.688;2023-04-01T13:17:25;8.40;99.90
28171;DHT22;15458;53.346;-1.688;2023-04-01T13:20:07;8.50;99.90
28171;DHT22;15458;53.346;-1.688;2023-04-01T13:30:54;8.90;99.90
28171;DHT22;15458;53.346;-1.688;2023-04-01T13:33:27;9.00;99.90
28171;DHT22;15458;53.346;-1.688;2023-04-01T13:44:17;9.10;99.90
28171;DHT22;15458;53.346;-1.688;2023-04-01T13:49:45;9.00;99.90
28171;DHT22;15458;53.346;-1.688;2023-04-01T14:03:15;8.80;99.90
28171;DHT22;15458;53.346;-1.688;2023-04-01T14:11:26;8.90;99.90
28171;DHT22;15458;53.346;-1.688;2023-04-01T14:20:20;9.10;99.90
28171;DHT22;15458;53.346;-1.688;2023-04-01T14:25:48;9.20;99.90
28171;DHT22;15458;53.346;-1.688;2023-04-01T14:31:13;9.30;99.90
28171;DHT22;15458;53.346;-1.688;2023-04-01T14:34:12;9.30;99.90
28171;DHT22;15458;53.346;-1.688;2023-04-01T14:36:49;9.30;99.90
28171;DHT22;15458;53.346;-1.688;2023-04-01T14:47:43;9.40;99.90
28171;DHT22;15458;53.346;-1.688;2023-04-01T14:50:21;9.50;99.90
28171;DHT22;15458;53.346;-1.688;2023-04-01T14:52:56;9.50;99.90
28171;DHT22;15458;53.346;-1.688;2023-04-01T15:00:46;9.50;99.90
28171;DHT22;15458;53.346;-1.688;2023-04-01T15:03:24;9.50;99.90
28171;DHT22;15458;53.346;-1.688;2023-04-01T15:32:32;9.50;99.90
28171;DHT22;15458;53.346;-1.688;2023-04-01T15:38:53;9.30;99.90
28171;DHT22;15458;53.346;-1.688;2023-04-01T15:44:42;9.20;99.90
28171;DHT22;15458;53.346;-1.688;2023-04-01T15:47:33;9.10;99.90
28171;DHT22;15458;53.346;-1.688;2023-04-01T15:50:32;9.00;99.90
28171;DHT22;15458;53.346;-1.688;2023-04-01T15:58:28;8.90;99.90
28171;DHT22;15458;53.346;-1.688;2023-04-01T16:06:59;8.80;99.90
28171;DHT22;15458;53.346;-1.688;2023-04-01T16:10:38;8.80;99.90
28171;DHT22;15458;53.346;-1.688;2023-04-01T16:21:05;8.50;99.90
28171;DHT22;15458;53.346;-1.688;2023-04-01T16:24:00;8.50;99.90
28171;DHT22;15458;53.346;-1.688;2023-04-01T16:34:43;8.40;99.90
28171;DHT22;15458;53.346;-1.688;2023-04-01T16:37:59;8.40;99.90
28171;DHT22;15458;53.346;-1.688;2023-04-01T16:42:53;8.30;99.90
28171;DHT22;15458;53.346;-1.688;2023-04-01T16:45:35;8.30;99.90
28171;DHT22;15458;53.346;-1.688;2023-04-01T16:48:20;8.30;99.90
28171;DHT22;15458;53.346;-1.688;2023-04-01T16:51:04;8.30;99.90
28171;DHT22;15458;53.346;-1.688;2023-04-01T16:54:02;8.30;99.90
28171;DHT22;15458;53.346;-1.688;2023-04-01T16:56:56;8.30;99.90
28171;DHT22;15458;53.346;-1.688;2023-04-01T17:02:08;8.40;99.90
28171;DHT22;15458;53.346;-1.688;2023-04-01T17:04:48;8.30;99.90
28171;DHT22;15458;53.346;-1.688;2023-04-01T17:15:51;8.30;99.90
28171;DHT22;15458;53.346;-1.688;2023-04-01T17:35:35;8.30;99.90
28171;DHT22;15458;53.346;-1.688;2023-04-01T17:44:10;8.20;99.90
28171;DHT22;15458;53.346;-1.688;2023-04-01T17:57:56;8.10;99.90
28171;DHT22;15458;53.346;-1.688;2023-04-01T18:00:30;8.00;99.90
28171;DHT22;15458;53.346;-1.688;2023-04-01T18:06:25;7.90;99.90
28171;DHT22;15458;53.346;-1.688;2023-04-01T18:15:19;7.80;99.90
28171;DHT22;15458;53.346;-1.688;2023-04-01T18:17:56;7.80;99.90
28171;DHT22;15458;53.346;-1.688;2023-04-01T18:23:06;7.80;99.90
28171;DHT22;15458;53.346;-1.688;2023-04-01T18:25:40;7.70;99.90
28171;DHT22;15458;53.346;-1.688;2023-04-01T18:28:39;7.70;99.90
28171;DHT22;15458;53.346;-1.688;2023-04-01T18:31:16;7.70;99.90
28171;DHT22;15458;53.346;-1.688;2023-04-01T18:34:06;7.70;99.90
28171;DHT22;15458;53.346;-1.688;2023-04-01T18:36:44;7.70;99.90
28171;DHT22;15458;53.346;-1.688;2023-04-01T18:42:23;7.70;99.90
28171;DHT22;15458;53.346;-1.688;2023-04-01T18:48:01;7.70;99.90
28171;DHT22;15458;53.346;-1.688;2023-04-01T18:53:35;7.80;99.90
28171;DHT22;15458;53.346;-1.688;2023-04-01T18:56:13;7.90;99.90
28171;DHT22;15458;53.346;-1.688;2023-04-01T18:58:48;8.00;99.90
28171;DHT22;15458;53.346;-1.688;2023-04-01T19:01:26;8.10;99.90
28171;DHT22;15458;53.346;-1.688;2023-04-01T19:06:52;8.10;99.90
28171;DHT22;15458;53.346;-1.688;2023-04-01T19:09:30;8.10;99.90
28171;DHT22;15458;53.346;-1.688;2023-04-01T19:25:39;7.70;99.90
28171;DHT22;15458;53.346;-1.688;2023-04-01T19:30:58;7.70;99.90
28171;DHT22;15458;53.346;-1.688;2023-04-01T19:36:42;7.70;99.90
28171;DHT22;15458;53.346;-1.688;2023-04-01T19:39:39;7.60;99.90
28171;DHT22;15458;53.346;-1.688;2023-04-01T19:44:57;7.60;99.90
28171;DHT22;15458;53.346;-1.688;2023-04-01T19:53:59;7.50;99.90
28171;DHT22;15458;53.346;-1.688;2023-04-01T19:56:37;7.50;99.90
28171;DHT22;15458;53.346;-1.688;2023-04-01T20:02:17;7.50;99.90
28171;DHT22;15458;53.346;-1.688;2023-04-01T20:04:51;7.50;99.90
28171;DHT22;15458;53.346;-1.688;2023-04-01T20:07:48;7.40;99.90
28171;DHT22;15458;53.346;-1.688;2023-04-01T20:10:34;7.40;99.90
28171;DHT22;15458;53.346;-1.688;2023-04-01T20:15:39;7.30;99.90
28171;DHT22;15458;53.346;-1.688;2023-04-01T20:18:25;7.30;99.90
28171;DHT22;15458;53.346;-1.688;2023-04-01T20:21:03;7.30;99.90
28171;DHT22;15458;53.346;-1.688;2023-04-01T20:23:33;7.30;99.90
28171;DHT22;15458;53.346;-1.688;2023-04-01T20:26:11;7.30;99.90
28171;DHT22;15458;53.346;-1.688;2023-04-01T20:40:27;7.20;99.90
28171;DHT22;15458;53.346;-1.688;2023-04-01T20:43:20;7.20;99.90
28171;DHT22;15458;53.346;-1.688;2023-04-01T20:46:11;7.20;99.90
28171;DHT22;15458;53.346;-1.688;2023-04-01T20:51:32;7.10;99.90
28171;DHT22;15458;53.346;-1.688;2023-04-01T20:57:06;7.10;99.90
28171;DHT22;15458;53.346;-1.688;2023-04-01T21:05:19;7.00;99.90
28171;DHT22;15458;53.346;-1.688;2023-04-01T21:08:12;7.00;99.90
28171;DHT22;15458;53.346;-1.688;2023-04-01T21:10:46;7.00;99.90
28171;DHT22;15458;53.346;-1.688;2023-04-01T21:18:59;7.00;99.90
28171;DHT22;15458;53.346;-1.688;2023-04-01T21:21:46;7.00;99.90
28171;DHT22;15458;53.346;-1.688;2023-04-01T21:54:26;7.00;99.90
28171;DHT22;15458;53.346;-1.688;2023-04-01T22:00:06;7.00;99.90
28171;DHT22;15458;53.346;-1.688;2023-04-01T22:02:48;7.00;99.90
28171;DHT22;15458;53.346;-1.688;2023-04-01T22:05:31;7.00;99.90
28171;DHT22;15458;53.346;-1.688;2023-04-01T22:10:37;7.00;99.90
28171;DHT22;15458;53.346;-1.688;2023-04-01T22:13:12;6.90;99.90
28171;DHT22;15458;53.346;-1.688;2023-04-01T22:16:17;6.90;99.90
28171;DHT22;15458;53.346;-1.688;2023-04-01T22:25:10;6.90;99.90
28171;DHT22;15458;53.346;-1.688;2023-04-01T22:30:16;6.90;99.90
28171;DHT22;15458;53.346;-1.688;2023-04-01T22:41:14;6.80;99.90
28171;DHT22;15458;53.346;-1.688;2023-04-01T22:43:44;6.80;99.90
28171;DHT22;15458;53.346;-1.688;2023-04-01T22:52:05;6.80;99.90
28171;DHT22;15458;53.346;-1.688;2023-04-01T22:54:41;6.80;99.90
28171;DHT22;15458;53.346;-1.688;2023-04-01T22:57:35;6.70;99.90
28171;DHT22;15458;53.346;-1.688;2023-04-01T23:00:13;6.70;99.90
28171;DHT22;15458;53.346;-1.688;2023-04-01T23:02:45;6.70;99.90
28171;DHT22;15458;53.346;-1.688;2023-04-01T23:05:17;6.70;99.90
28171;DHT22;15458;53.346;-1.688;2023-04-01T23:10:56;6.70;99.90
28171;DHT22;15458;53.346;-1.688;2023-04-01T23:13:28;6.60;99.90
28171;DHT22;15458;53.346;-1.688;2023-04-01T23:15:55;6.60;99.90
28171;DHT22;15458;53.346;-1.688;2023-04-01T23:24:33;6.50;99.90
28171;DHT22;15458;53.346;-1.688;2023-04-01T23:27:17;6.50;99.90
28171;DHT22;15458;53.346;-1.688;2023-04-01T23:29:45;6.50;99.90
28171;DHT22;15458;53.346;-1.688;2023-04-01T23:32:22;6.50;99.90
28171;DHT22;15458;53.346;-1.688;2023-04-01T23:34:56;6.50;99.90
28171;DHT22;15458;53.346;-1.688;2023-04-01T23:37:23;6.50;99.90
28171;DHT22;15458;53.346;-1.688;2023-04-01T23:39:50;6.50;99.90
28171;DHT22;15458;53.346;-1.688;2023-04-01T23:44:53;6.50;99.90
28171;DHT22;15458;53.346;-1.688;2023-04-01T23:47:28;6.50;99.90
28171;DHT22;15458;53.346;-1.688;2023-04-01T23:49:57;6.50;99.90
28171;DHT22;15458;53.346;-1.688;2023-04-01T23:52:30;6.50;99.90
28171;DHT22;15458;53.346;-1.688;2023-04-01T23:54:58;6.50;99.90
28171;DHT22;15458;53.346;-1.688;2023-04-01T23:57:30;6.50;99.90
